createdAt,value
2022-08-03T00:01:50.280Z,3.72
2022-08-03T00:04:17.387Z,3.50
2022-08-03T00:06:44.117Z,3.03
2022-08-03T00:09:11.530Z,3.22
2022-08-03T00:11:38.517Z,3.45
2022-08-03T00:14:06.044Z,3.65
2022-08-03T00:16:33.266Z,3.85
2022-08-03T00:19:01.114Z,3.13
2022-08-03T00:21:28.426Z,3.35
2022-08-03T00:23:55.051Z,3.25
2022-08-03T00:26:21.856Z,3.55
2022-08-03T00:28:49.795Z,3.20
2022-08-03T00:31:16.801Z,4.03
2022-08-03T00:33:59.117Z,3.58
2022-08-03T00:36:27.204Z,4.22
2022-08-03T00:38:54.000Z,3.70
2022-08-03T00:41:20.660Z,3.67
2022-08-03T00:43:47.661Z,3.42
2022-08-03T00:46:17.707Z,3.78
2022-08-03T00:48:47.476Z,3.97
2022-08-03T00:51:14.260Z,4.10
2022-08-03T00:53:41.187Z,4.25
2022-08-03T00:56:07.827Z,3.92
2022-08-03T00:58:34.616Z,3.65
2022-08-03T01:01:01.296Z,3.85
2022-08-03T01:03:27.928Z,3.80
2022-08-03T01:06:17.209Z,4.25
2022-08-03T01:09:01.423Z,4.00
2022-08-03T01:11:34.292Z,4.03
2022-08-03T01:14:19.015Z,4.80
2022-08-03T01:16:55.987Z,3.95
2022-08-03T01:19:31.765Z,4.18
2022-08-03T01:22:36.029Z,4.55
2022-08-03T01:25:14.805Z,4.07
2022-08-03T01:28:02.269Z,4.25
2022-08-03T01:30:33.401Z,3.92
2022-08-03T01:33:06.824Z,3.75
2022-08-03T01:36:02.001Z,3.83
2022-08-03T01:38:38.417Z,4.40
2022-08-03T01:41:10.271Z,3.53
2022-08-03T01:43:55.331Z,3.95
2022-08-03T01:46:26.624Z,3.67
2022-08-03T01:48:54.801Z,4.10
2022-08-03T01:51:22.707Z,3.88
2022-08-03T01:53:52.119Z,4.32
2022-08-03T01:56:20.392Z,3.78
2022-08-03T01:58:49.665Z,3.65
2022-08-03T02:01:17.762Z,3.58
2022-08-03T02:03:58.108Z,4.03
2022-08-03T02:07:01.416Z,4.10
2022-08-03T02:09:19.047Z,4.10
2022-08-03T02:11:47.099Z,4.80
2022-08-03T02:14:15.858Z,4.47
2022-08-03T02:16:44.574Z,4.72
2022-08-03T02:19:12.034Z,5.00
2022-08-03T02:21:57.090Z,4.40
2022-08-03T02:24:26.779Z,4.05
2022-08-03T02:26:58.064Z,4.32
2022-08-03T02:29:39.709Z,3.67
2022-08-03T02:32:12.303Z,3.67
2022-08-03T02:34:41.978Z,4.38
2022-08-03T02:37:10.255Z,3.65
2022-08-03T02:39:38.663Z,3.85
2022-08-03T02:42:08.623Z,3.72
2022-08-03T02:44:37.570Z,3.83
2022-08-03T02:47:09.480Z,4.35
2022-08-03T02:49:50.849Z,4.30
2022-08-03T02:52:22.029Z,4.18
2022-08-03T02:54:51.083Z,4.25
2022-08-03T02:57:19.952Z,4.38
2022-08-03T02:59:47.843Z,3.92
2022-08-03T03:02:16.737Z,4.15
2022-08-03T03:05:51.816Z,3.85
2022-08-03T03:07:39.117Z,3.83
2022-08-03T03:10:20.657Z,4.07
2022-08-03T03:12:48.265Z,4.13
2022-08-03T03:15:14.896Z,4.40
2022-08-03T03:17:43.567Z,4.20
2022-08-03T03:20:11.245Z,4.07
2022-08-03T03:22:38.767Z,4.32
2022-08-03T03:25:07.959Z,4.20
2022-08-03T03:27:35.120Z,4.68
2022-08-03T03:30:03.865Z,5.03
2022-08-03T03:32:30.806Z,5.03
2022-08-03T03:34:59.187Z,4.70
2022-08-03T03:37:26.961Z,4.10
2022-08-03T03:39:54.713Z,3.70
2022-08-03T03:42:21.664Z,3.80
2022-08-03T03:44:48.466Z,4.80
2022-08-03T03:47:15.145Z,4.05
2022-08-03T03:49:43.944Z,4.63
2022-08-03T03:52:10.959Z,4.25
2022-08-03T03:54:45.341Z,4.43
2022-08-03T03:57:12.979Z,4.00
2022-08-03T03:59:41.581Z,3.75
2022-08-03T04:02:09.914Z,4.15
2022-08-03T04:04:56.098Z,4.93
2022-08-03T04:07:45.669Z,4.00
2022-08-03T04:10:59.841Z,4.00
2022-08-03T04:13:36.715Z,4.03
2022-08-03T04:16:04.943Z,4.20
2022-08-03T04:18:35.318Z,3.90
2022-08-03T04:21:04.312Z,4.25
2022-08-03T04:23:34.620Z,3.80
2022-08-03T04:26:03.396Z,4.93
2022-08-03T04:28:32.376Z,3.88
2022-08-03T04:31:04.302Z,5.10
2022-08-03T04:33:33.590Z,4.72
2022-08-03T04:36:06.207Z,4.45
2022-08-03T04:38:38.821Z,4.45
2022-08-03T04:41:06.403Z,4.25
2022-08-03T04:43:34.107Z,3.97
2022-08-03T04:46:02.473Z,5.57
2022-08-03T04:48:29.328Z,4.28
2022-08-03T04:50:56.368Z,4.13
2022-08-03T04:53:23.256Z,4.75
2022-08-03T04:55:49.889Z,4.25
2022-08-03T04:58:16.482Z,4.25
2022-08-03T05:00:43.435Z,4.20
2022-08-03T05:03:20.209Z,4.38
2022-08-03T05:05:52.574Z,4.93
2022-08-03T05:08:27.934Z,4.43
2022-08-03T05:10:55.722Z,4.93
2022-08-03T05:13:25.792Z,4.72
2022-08-03T05:15:52.512Z,4.60
2022-08-03T05:18:19.284Z,4.38
2022-08-03T05:20:45.944Z,5.03
2022-08-03T05:23:12.572Z,4.78
2022-08-03T05:25:39.500Z,4.55
2022-08-03T05:28:06.410Z,4.25
2022-08-03T05:30:34.356Z,4.68
2022-08-03T05:33:02.682Z,4.68
2022-08-03T05:36:01.319Z,4.47
2022-08-03T05:38:20.901Z,4.43
2022-08-03T05:40:56.939Z,5.18
2022-08-03T05:43:24.799Z,4.40
2022-08-03T05:46:11.934Z,4.90
2022-08-03T05:48:38.024Z,4.80
2022-08-03T05:51:06.539Z,5.30
2022-08-03T05:53:34.126Z,4.97
2022-08-03T05:56:13.095Z,5.05
2022-08-03T05:58:43.730Z,5.20
2022-08-03T06:01:10.404Z,5.07
2022-08-03T06:03:37.032Z,5.22
2022-08-03T06:06:03.776Z,4.88
2022-08-03T06:08:30.399Z,4.80
2022-08-03T06:10:57.049Z,4.68
2022-08-03T06:16:14.833Z,4.50
2022-08-03T06:18:42.480Z,3.97
2022-08-03T06:21:14.802Z,4.45
2022-08-03T06:23:54.076Z,4.20
2022-08-03T06:26:23.659Z,4.32
2022-08-03T06:28:52.813Z,3.33
2022-08-03T06:31:22.918Z,3.75
2022-08-03T06:34:34.095Z,3.67
2022-08-03T06:36:37.387Z,3.50
2022-08-03T06:39:04.569Z,3.45
2022-08-03T06:41:31.150Z,3.03
2022-08-03T06:44:04.731Z,2.80
2022-08-03T06:46:31.527Z,2.78
2022-08-03T06:48:58.135Z,2.58
2022-08-03T06:52:02.594Z,2.30
2022-08-03T06:54:12.228Z,2.40
2022-08-03T06:56:38.901Z,2.20
2022-08-03T06:59:05.489Z,2.20
2022-08-03T07:01:32.104Z,2.10
2022-08-03T07:03:58.775Z,2.28
2022-08-03T07:06:25.360Z,2.33
2022-08-03T07:08:55.467Z,1.80
2022-08-03T07:11:24.325Z,1.52
2022-08-03T07:13:51.089Z,1.98
2022-08-03T07:16:18.625Z,2.05
2022-08-03T07:18:45.371Z,1.88
2022-08-03T07:21:12.720Z,1.77
2022-08-03T07:23:39.426Z,1.60
2022-08-03T07:26:06.275Z,2.17
2022-08-03T07:28:33.021Z,1.92
2022-08-03T07:30:59.727Z,2.08
2022-08-03T07:33:26.541Z,1.90
2022-08-03T07:35:53.150Z,1.80
2022-08-03T07:38:21.229Z,1.90
2022-08-03T07:40:48.096Z,2.10
2022-08-03T07:43:14.753Z,2.35
2022-08-03T07:45:41.389Z,2.10
2022-08-03T07:48:12.222Z,2.40
2022-08-03T07:50:39.899Z,2.40
2022-08-03T07:53:06.473Z,1.95
2022-08-03T07:55:33.207Z,2.17
2022-08-03T07:58:22.047Z,2.40
2022-08-03T08:00:52.892Z,1.73
2022-08-03T08:03:21.761Z,2.25
2022-08-03T08:05:49.036Z,2.40
2022-08-03T08:08:15.889Z,1.70
2022-08-03T08:10:42.496Z,2.17
2022-08-03T08:13:30.488Z,1.92
2022-08-03T08:15:57.669Z,2.03
2022-08-03T08:21:15.867Z,2.00
2022-08-03T08:23:44.882Z,2.28
2022-08-03T08:26:14.084Z,2.63
2022-08-03T08:28:41.116Z,2.50
2022-08-03T08:31:07.802Z,2.25
2022-08-03T08:34:03.139Z,2.40
2022-08-03T08:36:22.571Z,2.17
2022-08-03T08:38:49.452Z,2.20
2022-08-03T08:41:16.705Z,1.88
2022-08-03T08:43:43.596Z,1.88
2022-08-03T08:46:22.995Z,1.83
2022-08-03T08:48:52.525Z,1.83
2022-08-03T08:51:21.467Z,1.90
2022-08-03T08:53:52.061Z,1.70
2022-08-03T08:56:22.632Z,2.05
2022-08-03T08:58:52.396Z,1.83
2022-08-03T09:01:20.368Z,1.73
2022-08-03T09:03:47.565Z,1.63
2022-08-03T09:06:15.136Z,1.35
2022-08-03T09:08:41.977Z,1.63
2022-08-03T09:11:08.813Z,1.60
2022-08-03T09:13:39.125Z,1.70
2022-08-03T09:16:15.462Z,1.35
2022-08-03T09:18:51.926Z,1.75
2022-08-03T09:21:31.671Z,1.50
2022-08-03T09:24:05.900Z,1.60
2022-08-03T09:26:36.165Z,1.48
2022-08-03T09:29:14.485Z,1.50
2022-08-03T09:31:46.379Z,1.90
2022-08-03T09:34:15.396Z,1.52
2022-08-03T09:36:49.564Z,1.60
2022-08-03T09:39:18.481Z,1.63
2022-08-03T09:41:47.403Z,1.80
2022-08-03T09:44:25.873Z,1.50
2022-08-03T09:46:58.335Z,1.30
2022-08-03T09:49:25.419Z,1.60
2022-08-03T09:52:30.062Z,2.13
2022-08-03T09:54:39.916Z,1.90
2022-08-03T09:57:06.742Z,1.27
2022-08-03T09:59:39.181Z,2.08
2022-08-03T10:02:24.736Z,1.35
2022-08-03T10:04:52.890Z,1.50
2022-08-03T10:07:21.688Z,1.60
2022-08-03T10:10:30.255Z,1.70
2022-08-03T10:12:48.721Z,1.25
2022-08-03T10:16:21.275Z,2.05
2022-08-03T10:18:02.404Z,1.50
2022-08-03T10:20:29.137Z,1.98
2022-08-03T10:22:56.545Z,1.60
2022-08-03T10:25:23.871Z,1.27
2022-08-03T10:28:04.368Z,2.35
2022-08-03T10:30:32.873Z,1.58
2022-08-03T10:33:10.875Z,1.88
2022-08-03T10:35:58.153Z,1.30
2022-08-03T10:38:31.096Z,1.25
2022-08-03T10:40:59.365Z,1.58
2022-08-03T10:43:38.688Z,1.40
2022-08-03T10:46:07.828Z,1.20
2022-08-03T10:48:36.053Z,1.30
2022-08-03T10:51:03.388Z,1.80
2022-08-03T10:53:54.860Z,1.27
2022-08-03T10:56:53.505Z,1.20
2022-08-03T10:59:46.086Z,1.50
2022-08-03T11:02:14.258Z,1.48
2022-08-03T11:04:41.805Z,1.30
2022-08-03T11:07:22.656Z,1.13
2022-08-03T11:09:55.251Z,1.42
2022-08-03T11:12:32.957Z,1.30
2022-08-03T11:15:05.548Z,1.20
2022-08-03T11:17:33.952Z,1.60
2022-08-03T11:20:13.768Z,1.23
2022-08-03T11:22:54.471Z,1.42
2022-08-03T11:25:53.801Z,1.00
2022-08-03T11:28:29.411Z,1.10
2022-08-03T11:31:18.413Z,1.13
2022-08-03T11:34:09.472Z,1.27
2022-08-03T11:37:13.891Z,1.30
2022-08-03T11:39:45.633Z,1.25
2022-08-03T11:42:24.282Z,1.08
2022-08-03T11:44:53.131Z,1.15
2022-08-03T11:47:24.299Z,1.20
2022-08-03T11:49:54.281Z,0.90
2022-08-03T11:52:27.167Z,0.93
2022-08-03T11:54:56.975Z,0.93
2022-08-03T11:59:01.608Z,0.90
2022-08-03T12:03:16.811Z,1.35
2022-08-03T12:05:51.932Z,0.98
2022-08-03T12:08:28.058Z,1.35
2022-08-03T12:10:56.783Z,1.17
2022-08-03T12:14:27.080Z,1.13
2022-08-03T12:16:21.864Z,0.88
2022-08-03T12:19:12.782Z,1.20
2022-08-03T12:21:57.281Z,1.10
2022-08-03T12:24:24.172Z,1.48
2022-08-03T12:26:58.105Z,1.20
2022-08-03T12:29:28.672Z,1.50
2022-08-03T12:31:56.062Z,1.20
2022-08-03T12:34:26.031Z,1.35
2022-08-03T12:37:00.897Z,0.95
2022-08-03T12:39:30.865Z,1.27
2022-08-03T12:41:58.016Z,1.40
2022-08-03T12:44:32.069Z,1.17
2022-08-03T12:47:02.140Z,1.38
2022-08-03T12:49:30.432Z,1.20
2022-08-03T12:52:05.391Z,1.50
2022-08-03T12:54:35.905Z,1.27
2022-08-03T12:57:05.353Z,1.63
2022-08-03T12:59:40.620Z,1.58
2022-08-03T13:02:23.679Z,1.17
2022-08-03T13:04:54.498Z,1.30
2022-08-03T13:07:22.188Z,0.98
2022-08-03T13:09:50.040Z,1.60
2022-08-03T13:12:24.480Z,1.00
2022-08-03T13:14:56.714Z,1.05
2022-08-03T13:17:27.390Z,1.30
2022-08-03T13:19:56.858Z,1.42
2022-08-03T13:22:28.911Z,1.30
2022-08-03T13:24:59.112Z,1.95
2022-08-03T13:28:03.921Z,1.40
2022-08-03T13:30:29.960Z,1.60
2022-08-03T13:32:58.547Z,1.23
2022-08-03T13:38:18.403Z,1.60
2022-08-03T13:40:50.691Z,1.10
2022-08-03T13:43:17.276Z,0.70
2022-08-03T13:45:48.821Z,1.02
2022-08-03T13:48:34.796Z,1.33
2022-08-03T13:51:22.084Z,1.20
2022-08-03T13:53:50.888Z,1.58
2022-08-03T13:56:20.572Z,0.93
2022-08-03T13:58:47.161Z,1.42
2022-08-03T14:01:16.873Z,1.15
2022-08-03T14:03:43.603Z,1.17
2022-08-03T14:06:13.220Z,1.23
2022-08-03T14:08:40.064Z,1.85
2022-08-03T14:11:06.733Z,1.10
2022-08-03T14:13:35.781Z,0.88
2022-08-03T14:16:02.447Z,1.20
2022-08-03T14:18:33.826Z,0.93
2022-08-03T14:21:07.162Z,1.00
2022-08-03T14:23:40.275Z,1.10
2022-08-03T14:26:09.712Z,1.33
2022-08-03T14:28:36.449Z,1.00
2022-08-03T14:31:08.295Z,0.98
2022-08-03T14:33:44.904Z,1.25
2022-08-03T14:36:11.536Z,1.17
2022-08-03T14:38:41.133Z,1.08
2022-08-03T14:41:12.363Z,1.50
2022-08-03T14:44:01.095Z,1.30
2022-08-03T14:46:31.222Z,0.93
2022-08-03T14:50:34.481Z,1.13
2022-08-03T14:51:53.352Z,1.10
2022-08-03T14:54:23.748Z,0.80
2022-08-03T14:56:50.691Z,1.20
2022-08-03T15:02:21.258Z,1.23
2022-08-03T15:04:50.292Z,1.15
2022-08-03T15:10:10.828Z,1.35
2022-08-03T15:12:37.416Z,1.42
2022-08-03T15:15:07.311Z,1.00
2022-08-03T15:17:33.937Z,0.95
2022-08-03T15:20:23.436Z,1.20
2022-08-03T15:22:51.396Z,1.23
2022-08-03T15:26:03.758Z,1.20
2022-08-03T15:28:05.266Z,1.02
2022-08-03T15:30:35.920Z,1.00
2022-08-03T15:33:05.313Z,1.30
2022-08-03T15:35:32.922Z,1.00
2022-08-03T15:38:06.060Z,1.02
2022-08-03T15:40:35.749Z,1.15
2022-08-03T15:43:04.765Z,1.00
2022-08-03T15:45:35.484Z,0.90
2022-08-03T15:48:03.781Z,1.00
2022-08-03T15:50:30.422Z,0.98
2022-08-03T15:52:57.119Z,1.23
2022-08-03T15:55:23.784Z,1.20
2022-08-03T15:59:10.982Z,1.25
2022-08-03T16:00:38.060Z,1.40
2022-08-03T16:03:05.269Z,1.25
2022-08-03T16:05:32.106Z,0.93
2022-08-03T16:08:03.987Z,1.05
2022-08-03T16:10:32.424Z,1.42
2022-08-03T16:13:00.009Z,1.20
2022-08-03T16:15:27.452Z,1.20
2022-08-03T16:17:54.233Z,1.40
2022-08-03T16:20:30.791Z,0.95
2022-08-03T16:23:05.483Z,1.15
2022-08-03T16:25:40.612Z,1.48
2022-08-03T16:28:13.574Z,1.05
2022-08-03T16:30:42.771Z,1.30
2022-08-03T16:33:09.827Z,1.00
2022-08-03T16:35:36.862Z,1.08
2022-08-03T16:38:09.638Z,0.88
2022-08-03T16:40:37.317Z,1.13
2022-08-03T16:43:18.119Z,0.85
2022-08-03T16:45:46.700Z,1.20
2022-08-03T16:48:15.262Z,1.50
2022-08-03T16:50:42.099Z,1.05
2022-08-03T16:53:17.074Z,1.13
2022-08-03T16:55:53.899Z,1.10
2022-08-03T16:58:34.742Z,1.10
2022-08-03T17:01:21.733Z,1.00
2022-08-03T17:04:01.818Z,1.02
2022-08-03T17:06:34.132Z,0.90
2022-08-03T17:09:03.262Z,1.35
2022-08-03T17:11:32.127Z,0.80
2022-08-03T17:14:00.017Z,0.98
2022-08-03T17:16:27.059Z,1.00
2022-08-03T17:19:05.980Z,1.13
2022-08-03T17:21:37.516Z,1.10
2022-08-03T17:24:26.175Z,1.27
2022-08-03T17:26:55.153Z,0.93
2022-08-03T17:29:25.168Z,1.08
2022-08-03T17:31:53.186Z,0.90
2022-08-03T17:34:20.853Z,1.40
2022-08-03T17:37:27.030Z,1.08
2022-08-03T17:39:58.055Z,1.20
2022-08-03T17:42:31.301Z,1.20
2022-08-03T17:45:02.434Z,1.27
2022-08-03T17:50:24.855Z,0.75
2022-08-03T17:53:07.415Z,0.90
2022-08-03T17:55:57.370Z,0.85
2022-08-03T17:58:58.213Z,0.88
2022-08-03T18:02:03.674Z,1.23
2022-08-03T18:04:41.589Z,1.10
2022-08-03T18:07:12.907Z,1.15
2022-08-03T18:10:04.991Z,0.95
2022-08-03T18:12:46.096Z,0.80
2022-08-03T18:15:30.588Z,0.80
2022-08-03T18:18:10.467Z,1.83
2022-08-03T18:20:45.760Z,0.70
2022-08-03T18:23:20.450Z,0.90
2022-08-03T18:28:54.792Z,1.20
2022-08-03T18:31:59.648Z,0.93
2022-08-03T18:34:17.830Z,1.50
2022-08-03T18:37:00.554Z,1.00
2022-08-03T18:39:31.910Z,1.08
2022-08-03T18:41:59.708Z,1.40
2022-08-03T18:44:52.571Z,1.13
2022-08-03T18:47:52.476Z,1.40
2022-08-03T18:54:03.365Z,0.95
2022-08-03T18:56:39.483Z,1.30
2022-08-03T18:59:29.974Z,1.55
2022-08-03T19:02:09.253Z,0.85
2022-08-03T19:04:45.297Z,0.90
2022-08-03T19:07:24.335Z,0.98
2022-08-03T19:10:05.413Z,0.90
2022-08-03T19:12:45.091Z,1.10
2022-08-03T19:15:13.612Z,1.23
2022-08-03T19:17:53.623Z,1.10
2022-08-03T19:20:25.034Z,1.20
2022-08-03T19:22:53.330Z,1.63
2022-08-03T19:25:20.337Z,1.42
2022-08-03T19:28:07.394Z,1.13
2022-08-03T19:30:46.212Z,0.80
2022-08-03T19:33:20.217Z,1.88
2022-08-03T19:35:55.436Z,1.20
2022-08-03T19:38:28.673Z,1.35
2022-08-03T19:41:09.583Z,1.80
2022-08-03T19:43:49.371Z,1.77
2022-08-03T19:49:20.239Z,1.30
2022-08-03T19:51:58.412Z,1.45
2022-08-03T19:54:45.491Z,1.38
2022-08-03T19:57:24.658Z,1.30
2022-08-03T19:59:53.133Z,2.08
2022-08-03T20:05:15.475Z,1.40
2022-08-03T20:07:47.650Z,1.73
2022-08-03T20:10:16.500Z,1.73
2022-08-03T20:12:47.395Z,1.45
2022-08-03T20:15:14.426Z,1.65
2022-08-03T20:17:55.995Z,1.40
2022-08-03T20:20:32.501Z,1.73
2022-08-03T20:23:06.864Z,2.05
2022-08-03T20:25:48.647Z,1.98
2022-08-03T20:28:32.613Z,1.08
2022-08-03T20:31:03.947Z,1.73
2022-08-03T20:33:48.343Z,1.80
2022-08-03T20:36:18.043Z,2.00
2022-08-03T20:38:48.387Z,1.73
2022-08-03T20:41:20.696Z,1.92
2022-08-03T20:43:49.232Z,1.90
2022-08-03T20:46:32.639Z,1.70
2022-08-03T20:49:06.219Z,1.80
2022-08-03T20:51:49.034Z,1.05
2022-08-03T20:54:29.928Z,1.45
2022-08-03T20:57:03.885Z,1.40
2022-08-03T20:59:50.383Z,1.40
2022-08-03T21:02:30.366Z,1.52
2022-08-03T21:04:59.149Z,2.00
2022-08-03T21:08:05.519Z,2.42
2022-08-03T21:10:21.651Z,1.77
2022-08-03T21:13:04.462Z,1.20
2022-08-03T21:13:05.314Z,1.15
2022-08-03T21:13:18.044Z,2.13
2022-08-03T21:16:06.938Z,1.92
2022-08-03T21:18:42.124Z,1.67
2022-08-03T21:21:13.424Z,1.33
2022-08-03T21:23:48.712Z,1.33
2022-08-03T21:26:20.839Z,1.48
2022-08-03T21:28:49.018Z,1.50
2022-08-03T21:31:24.736Z,1.90
2022-08-03T21:33:59.942Z,2.28
2022-08-03T21:36:28.869Z,2.22
2022-08-03T21:38:57.581Z,1.95
2022-08-03T21:41:31.464Z,2.00
2022-08-03T21:43:58.868Z,1.75
2022-08-03T21:46:29.453Z,1.98
2022-08-03T21:50:07.377Z,2.05
2022-08-03T21:52:06.608Z,1.88
2022-08-03T21:54:45.163Z,2.00
2022-08-03T21:57:31.930Z,2.08
2022-08-03T22:00:13.131Z,2.22
2022-08-03T22:02:42.746Z,2.38
2022-08-03T22:05:09.967Z,2.08
2022-08-03T22:07:43.790Z,1.80
2022-08-03T22:10:14.135Z,2.53
2022-08-03T22:12:41.844Z,2.15
2022-08-03T22:15:12.720Z,2.25
2022-08-03T22:17:56.275Z,2.35
2022-08-03T22:20:24.189Z,1.95
2022-08-03T22:22:56.633Z,2.80
2022-08-03T22:25:29.388Z,1.77
2022-08-03T22:27:58.265Z,2.20
2022-08-03T22:30:25.050Z,2.58
2022-08-03T22:32:54.611Z,2.47
2022-08-03T22:35:23.785Z,3.15
2022-08-03T22:37:52.842Z,2.58
2022-08-03T22:40:19.547Z,2.45
2022-08-03T22:42:49.321Z,2.53
2022-08-03T22:46:06.014Z,2.40
2022-08-03T22:48:07.159Z,2.70
2022-08-03T22:50:34.519Z,2.67
2022-08-03T22:53:01.631Z,2.80
2022-08-03T22:55:31.801Z,3.15
2022-08-03T22:57:58.412Z,2.90
2022-08-03T23:00:25.560Z,2.95
2022-08-03T23:02:54.368Z,3.13
2022-08-03T23:06:00.727Z,3.22
2022-08-03T23:08:21.584Z,2.60
2022-08-03T23:10:48.688Z,2.47
2022-08-03T23:13:18.337Z,2.83
2022-08-03T23:15:54.998Z,2.90
2022-08-03T23:21:15.169Z,2.92
2022-08-03T23:23:44.696Z,2.60
2022-08-03T23:26:12.948Z,3.88
2022-08-03T23:28:41.397Z,3.20
2022-08-03T23:31:08.475Z,2.88
2022-08-03T23:33:38.729Z,2.85
2022-08-03T23:36:27.886Z,4.13
2022-08-03T23:38:54.204Z,2.63
2022-08-03T23:41:21.972Z,4.15
2022-08-03T23:43:51.909Z,4.07
2022-08-03T23:46:22.145Z,3.58
2022-08-03T23:48:49.388Z,3.97
2022-08-03T23:51:42.934Z,3.10
2022-08-03T23:54:23.880Z,3.63
2022-08-03T23:57:04.243Z,3.38
2022-08-03T23:59:39.623Z,2.90
